Terminal Aerodrome Forecast
Issued by NWS

Home | Current Version | Previous Version | Text Only | Print | Product List | Glossary On
Versions: 1 2 3 4 5 6 7 8 9 10 11 12 13 14 15 16 17 18
000
FTUS46 KEKA 212214 AAA
TAFUKI
TAF AMD
KUKI 212214Z 2122/2218 30010G20KT P6SM SCT035 BKN250
     FM220000 31009KT P6SM SCT035 SCT250
     FM220400 35003KT P6SM SCT250
     FM221200 VRB03KT 6SM BR SCT012=

USA.gov is the U.S. government's official web portal to all federal, state and local government web resources and services.